Time;durP1;ratioP1;P1;durP2;ratioP2;P2;SDS_P1;SDS_P2;PMS_P1;PMS_P2;Temp;Humidity;BMP_temperature;BMP_pressure;BME280_temperature;BME280_humidity;BME280_pressure;Samples;Min_cycle;Max_cycle;Signal;HPM_P1;HPM_P2
2021/05/28 00:01:01;;;;;;;6.63;6.23;;;12.00;99.90;;;;;;4988716;28;20208;-79
2021/05/28 00:03:29;;;;;;;6.80;6.30;;;12.00;99.90;;;;;;4987650;28;20213;-79
2021/05/28 00:05:55;;;;;;;6.80;6.20;;;12.00;99.90;;;;;;4977563;28;20209;-80
2021/05/28 00:08:22;;;;;;;6.83;6.23;;;12.00;99.90;;;;;;4986712;28;20191;-79
2021/05/28 00:10:48;;;;;;;6.47;6.07;;;12.00;99.90;;;;;;4984610;28;20262;-79
2021/05/28 00:13:14;;;;;;;6.80;6.30;;;12.00;99.90;;;;;;4986357;28;20230;-80
2021/05/28 00:15:41;;;;;;;6.60;6.20;;;12.00;99.90;;;;;;5001634;28;20270;-79
2021/05/28 00:18:08;;;;;;;6.80;6.30;;;12.00;99.90;;;;;;4988101;28;20226;-79
2021/05/28 00:20:36;;;;;;;7.07;6.00;;;12.00;99.90;;;;;;4986423;28;20240;-79
2021/05/28 00:23:02;;;;;;;6.87;6.20;;;12.00;99.90;;;;;;4989676;28;20284;-79
2021/05/28 00:25:29;;;;;;;6.20;5.80;;;12.00;99.90;;;;;;4984861;28;20201;-79
2021/05/28 00:27:56;;;;;;;9.83;6.30;;;12.00;99.90;;;;;;4985886;28;20193;-79
2021/05/28 00:30:22;;;;;;;6.23;5.83;;;12.00;99.90;;;;;;4987915;28;20209;-79
2021/05/28 00:32:49;;;;;;;6.67;6.20;;;12.00;99.90;;;;;;4987066;28;20221;-80
2021/05/28 00:35:17;;;;;;;6.93;6.50;;;12.00;99.90;;;;;;4989764;28;20205;-79
2021/05/28 00:37:44;;;;;;;6.90;6.30;;;11.90;99.90;;;;;;4981711;28;20666;-79
2021/05/28 00:40:12;;;;;;;6.70;6.10;;;12.00;99.90;;;;;;4986701;28;20201;-79
2021/05/28 00:42:38;;;;;;;6.40;5.90;;;11.90;99.90;;;;;;5003281;28;20212;-79
2021/05/28 00:45:06;;;;;;;6.47;5.97;;;11.90;99.90;;;;;;4990068;28;20201;-79
2021/05/28 00:47:34;;;;;;;6.40;5.90;;;11.90;99.90;;;;;;4987318;28;20197;-79
2021/05/28 00:50:00;;;;;;;6.67;5.83;;;11.90;99.90;;;;;;4988471;28;20201;-79
2021/05/28 00:52:26;;;;;;;6.80;6.30;;;11.90;99.90;;;;;;4988722;28;20219;-79
2021/05/28 00:54:54;;;;;;;6.67;6.17;;;11.80;99.90;;;;;;4980274;28;20210;-79
2021/05/28 00:57:22;;;;;;;7.33;6.83;;;11.80;99.90;;;;;;4987811;28;20228;-79
2021/05/28 00:59:49;;;;;;;7.40;6.67;;;11.70;99.90;;;;;;4986621;28;20206;-80
2021/05/28 01:02:16;;;;;;;7.90;7.30;;;11.60;99.90;;;;;;4989555;28;20737;-79
2021/05/28 01:04:42;;;;;;;7.30;6.70;;;11.50;99.90;;;;;;4986012;28;20213;-79
2021/05/28 01:07:08;;;;;;;7.60;7.00;;;11.60;99.90;;;;;;4984292;28;20190;-79
2021/05/28 01:09:35;;;;;;;7.33;6.77;;;11.60;99.90;;;;;;4987099;28;20678;-79
2021/05/28 01:12:02;;;;;;;7.87;7.27;;;11.60;99.90;;;;;;4988604;28;20205;-80
2021/05/28 01:14:28;;;;;;;7.83;7.23;;;11.60;99.90;;;;;;4986521;28;20221;-79
2021/05/28 01:16:55;;;;;;;7.57;7.07;;;11.50;99.90;;;;;;4986712;28;20211;-79
2021/05/28 01:19:21;;;;;;;8.07;7.43;;;11.60;99.90;;;;;;4991373;28;20625;-80
2021/05/28 01:21:48;;;;;;;7.43;6.93;;;11.50;99.90;;;;;;4985640;28;20205;-79
2021/05/28 01:24:15;;;;;;;7.43;6.90;;;11.50;99.90;;;;;;4984229;28;20225;-79
2021/05/28 01:26:41;;;;;;;7.47;6.97;;;11.50;99.90;;;;;;4985283;28;20231;-79
2021/05/28 01:29:08;;;;;;;7.30;6.80;;;11.50;99.90;;;;;;4984446;28;20197;-79
2021/05/28 01:31:35;;;;;;;7.33;6.83;;;11.40;99.90;;;;;;4986606;28;20255;-79
2021/05/28 01:34:02;;;;;;;7.37;6.87;;;11.50;99.90;;;;;;4986565;28;20241;-79
2021/05/28 01:36:29;;;;;;;7.10;6.50;;;11.40;99.90;;;;;;4991532;28;20580;-79
2021/05/28 01:38:55;;;;;;;7.67;7.07;;;11.50;99.90;;;;;;4986092;28;20267;-80
2021/05/28 01:41:28;;;;;;;6.40;5.93;;;11.50;99.90;;;;;;4984014;28;20727;-79
2021/05/28 01:43:54;;;;;;;7.30;6.80;;;11.50;99.90;;;;;;4990685;28;20217;-79
2021/05/28 01:46:21;;;;;;;6.87;6.37;;;11.40;99.90;;;;;;4989651;28;20224;-79
2021/05/28 01:48:47;;;;;;;7.10;6.60;;;11.40;99.90;;;;;;4990844;28;20200;-79
2021/05/28 01:51:13;;;;;;;7.57;7.07;;;11.40;99.90;;;;;;4989731;28;20212;-79
2021/05/28 01:53:39;;;;;;;7.60;7.00;;;11.40;99.90;;;;;;4985225;28;20225;-79
2021/05/28 01:56:06;;;;;;;6.87;6.47;;;11.40;99.90;;;;;;4985167;28;20201;-80
2021/05/28 01:58:33;;;;;;;7.37;6.87;;;11.40;99.90;;;;;;4985904;28;20225;-79
2021/05/28 02:00:59;;;;;;;7.53;6.93;;;11.40;99.90;;;;;;4989041;28;20217;-79
2021/05/28 02:03:26;;;;;;;8.33;7.53;;;11.30;99.90;;;;;;4992036;28;20269;-79
2021/05/28 02:05:53;;;;;;;7.70;7.10;;;11.30;99.90;;;;;;4986411;28;20744;-79
2021/05/28 02:08:20;;;;;;;7.70;7.10;;;11.30;99.90;;;;;;4992927;28;20197;-80
2021/05/28 02:10:47;;;;;;;7.20;6.70;;;11.20;99.90;;;;;;4989026;28;20197;-79
2021/05/28 02:13:13;;;;;;;7.83;7.23;;;11.10;99.90;;;;;;5010187;28;20340;-79
2021/05/28 02:15:41;;;;;;;7.53;7.03;;;11.10;99.90;;;;;;4989051;28;20248;-79
2021/05/28 02:18:07;;;;;;;7.20;6.70;;;11.00;99.90;;;;;;4987983;28;20202;-80
2021/05/28 02:20:34;;;;;;;7.37;6.77;;;11.10;99.90;;;;;;4991954;28;20272;-80
2021/05/28 02:23:00;;;;;;;8.27;7.67;;;11.10;99.90;;;;;;4988272;28;20649;-80
2021/05/28 02:25:27;;;;;;;7.70;7.10;;;11.10;99.90;;;;;;4994624;28;20189;-79
2021/05/28 02:27:53;;;;;;;7.80;7.20;;;11.10;99.90;;;;;;4990053;28;20200;-80
2021/05/28 02:30:20;;;;;;;8.67;7.97;;;11.20;99.90;;;;;;4990391;28;20212;-79
2021/05/28 02:32:47;;;;;;;7.97;7.37;;;11.20;99.90;;;;;;5005187;28;20208;-79
2021/05/28 02:35:14;;;;;;;7.30;6.80;;;11.20;99.90;;;;;;4994782;28;20201;-79
2021/05/28 02:37:40;;;;;;;7.90;7.30;;;11.20;99.90;;;;;;4994449;28;20275;-79
2021/05/28 02:40:08;;;;;;;8.43;7.83;;;11.30;99.90;;;;;;4993560;28;20212;-79
2021/05/28 02:42:35;;;;;;;8.00;7.40;;;11.20;99.90;;;;;;4994937;28;20201;-79
2021/05/28 02:45:02;;;;;;;7.30;6.80;;;11.30;99.90;;;;;;4990897;28;20201;-78
2021/05/28 02:47:29;;;;;;;8.97;8.27;;;11.20;99.90;;;;;;4995538;28;20189;-80
2021/05/28 02:49:57;;;;;;;9.10;8.50;;;11.20;99.90;;;;;;4994623;28;20201;-77
2021/05/28 02:52:23;;;;;;;8.20;7.60;;;11.20;99.90;;;;;;4995995;28;20204;-76
2021/05/28 02:54:50;;;;;;;9.57;8.77;;;11.20;99.90;;;;;;4993123;28;20217;-77
2021/05/28 02:57:16;;;;;;;9.70;9.00;;;11.20;99.90;;;;;;4987345;28;20260;-76
2021/05/28 02:59:42;;;;;;;8.67;7.87;;;11.20;99.90;;;;;;5000620;28;20643;-76
2021/05/28 03:02:08;;;;;;;8.30;7.70;;;11.20;99.90;;;;;;4993642;28;20208;-76
2021/05/28 03:04:35;;;;;;;9.70;9.00;;;11.20;99.90;;;;;;4988553;28;20698;-76
2021/05/28 03:07:03;;;;;;;10.20;9.40;;;11.10;99.90;;;;;;4994826;28;20243;-76
2021/05/28 03:09:29;;;;;;;10.20;9.40;;;11.10;99.90;;;;;;4995125;28;20256;-76
2021/05/28 03:11:56;;;;;;;10.53;9.63;;;11.00;99.90;;;;;;4993050;28;20197;-75
2021/05/28 03:14:22;;;;;;;9.27;8.60;;;11.00;99.90;;;;;;4990408;28;20221;-76
2021/05/28 03:16:48;;;;;;;9.40;8.70;;;10.90;99.90;;;;;;4996230;28;20268;-76
2021/05/28 03:19:20;;;;;;;10.27;9.50;;;10.90;99.90;;;;;;4998331;28;20196;-76
2021/05/28 03:24:31;;;;;;;11.63;9.33;;;10.90;99.90;;;;;;4985395;28;20209;-77
2021/05/28 03:26:58;;;;;;;9.60;8.90;;;10.90;99.90;;;;;;4987646;28;20201;-77
2021/05/28 03:29:25;;;;;;;9.60;8.90;;;10.90;99.90;;;;;;4987332;28;20598;-77
2021/05/28 03:31:51;;;;;;;9.07;8.37;;;10.90;99.90;;;;;;4991150;28;20201;-77
2021/05/28 03:34:17;;;;;;;10.27;9.27;;;11.00;99.90;;;;;;5006166;28;20222;-76
2021/05/28 03:36:44;;;;;;;10.57;9.67;;;11.00;99.90;;;;;;4986100;28;20201;-76
2021/05/28 03:39:11;;;;;;;10.13;9.33;;;11.00;99.90;;;;;;4988182;28;20218;-76
2021/05/28 03:41:38;;;;;;;9.77;8.97;;;11.00;99.90;;;;;;4987174;28;20204;-76
2021/05/28 03:44:05;;;;;;;9.53;8.83;;;11.00;99.90;;;;;;4994550;28;20244;-77
2021/05/28 03:46:31;;;;;;;9.30;8.57;;;11.10;99.90;;;;;;4985596;28;20240;-76
2021/05/28 03:48:58;;;;;;;9.43;8.67;;;11.10;99.90;;;;;;4986206;28;20690;-76
2021/05/28 03:51:24;;;;;;;10.03;9.00;;;11.10;99.90;;;;;;4992508;28;20208;-76
2021/05/28 03:53:51;;;;;;;9.40;8.70;;;11.00;99.90;;;;;;4991359;28;20825;-77
2021/05/28 03:56:17;;;;;;;10.50;9.70;;;11.10;99.90;;;;;;4991839;28;20209;-76
2021/05/28 03:58:44;;;;;;;9.43;8.73;;;11.00;99.90;;;;;;4986911;28;20237;-76
2021/05/28 04:01:11;;;;;;;11.07;10.23;;;11.00;99.90;;;;;;4990533;28;20301;-76
2021/05/28 04:03:37;;;;;;;9.70;9.00;;;11.10;99.90;;;;;;4990314;28;20225;-76
2021/05/28 04:06:04;;;;;;;9.57;8.87;;;11.10;99.90;;;;;;4982037;28;20202;-76
2021/05/28 04:08:31;;;;;;;9.37;8.67;;;11.00;99.90;;;;;;4992258;28;20209;-76
2021/05/28 04:10:57;;;;;;;9.83;9.13;;;11.00;99.90;;;;;;4989950;28;20728;-76
2021/05/28 04:13:29;;;;;;;9.73;8.97;;;11.00;99.90;;;;;;4994491;28;20240;-75
2021/05/28 04:15:56;;;;;;;9.73;8.93;;;11.00;99.90;;;;;;4988501;28;20202;-77
2021/05/28 04:18:23;;;;;;;8.90;8.20;;;11.00;99.90;;;;;;4986183;28;20218;-77
2021/05/28 04:20:49;;;;;;;8.70;8.10;;;11.10;99.90;;;;;;4990173;28;20201;-77
2021/05/28 04:23:15;;;;;;;9.00;8.40;;;11.10;99.90;;;;;;4983515;28;20217;-77
2021/05/28 04:25:42;;;;;;;9.90;9.00;;;11.10;99.90;;;;;;4993265;28;20243;-77
2021/05/28 04:28:12;;;;;;;9.27;8.67;;;11.10;99.90;;;;;;4992428;28;20206;-77
2021/05/28 04:30:39;;;;;;;8.80;8.10;;;11.10;99.90;;;;;;4995164;28;20665;-76
2021/05/28 04:33:07;;;;;;;9.97;9.03;;;11.10;99.90;;;;;;4990066;28;20217;-77
2021/05/28 04:35:34;;;;;;;9.03;8.37;;;11.10;99.90;;;;;;4996668;28;20205;-76
2021/05/28 04:38:01;;;;;;;9.63;8.83;;;11.20;99.90;;;;;;4997814;28;20212;-77
2021/05/28 04:40:28;;;;;;;9.27;8.53;;;11.20;99.90;;;;;;4991235;28;20197;-77
2021/05/28 04:42:55;;;;;;;9.10;8.27;;;11.40;99.90;;;;;;4991806;28;20296;-77
2021/05/28 04:45:21;;;;;;;10.00;9.20;;;11.60;99.90;;;;;;4989649;28;20206;-78
2021/05/28 04:47:48;;;;;;;9.67;8.83;;;11.70;99.90;;;;;;4992082;28;20201;-78
2021/05/28 04:50:16;;;;;;;9.40;8.70;;;11.80;99.90;;;;;;4995593;28;20662;-77
2021/05/28 04:52:42;;;;;;;9.30;8.60;;;12.00;99.90;;;;;;4994058;28;20635;-77
2021/05/28 04:55:09;;;;;;;10.30;9.50;;;12.10;99.90;;;;;;4995667;28;20197;-78
2021/05/28 04:57:36;;;;;;;9.17;8.57;;;12.20;99.90;;;;;;4988854;28;20582;-78
2021/05/28 05:00:03;;;;;;;9.27;8.57;;;12.30;99.90;;;;;;4995910;28;20205;-78
2021/05/28 05:02:29;;;;;;;7.57;6.97;;;12.40;99.90;;;;;;5002832;28;20193;-78
2021/05/28 05:04:55;;;;;;;7.33;6.73;;;12.50;99.90;;;;;;5000682;28;20230;-78
2021/05/28 05:07:23;;;;;;;8.23;7.63;;;12.50;99.90;;;;;;5013529;28;20280;-78
2021/05/28 05:09:49;;;;;;;9.07;8.33;;;12.60;99.90;;;;;;4999195;28;20226;-77
2021/05/28 05:12:16;;;;;;;9.60;8.90;;;12.60;99.90;;;;;;4998952;28;20190;-78
2021/05/28 05:14:42;;;;;;;8.03;7.47;;;12.60;99.90;;;;;;4989602;28;20229;-78
2021/05/28 05:17:08;;;;;;;8.17;7.47;;;12.60;99.90;;;;;;4993240;28;20237;-77
2021/05/28 05:19:35;;;;;;;8.37;7.77;;;12.60;99.90;;;;;;4996561;28;20202;-79
2021/05/28 05:22:01;;;;;;;8.03;7.43;;;12.80;99.90;;;;;;4992802;28;20233;-79
2021/05/28 05:24:28;;;;;;;8.17;7.67;;;12.90;99.90;;;;;;5005685;28;20578;-78
2021/05/28 05:26:54;;;;;;;8.90;8.30;;;13.10;99.90;;;;;;4987627;28;20655;-80
2021/05/28 05:29:21;;;;;;;5.70;5.20;;;13.20;99.90;;;;;;4989306;28;20205;-79
2021/05/28 05:31:47;;;;;;;6.20;5.20;;;13.40;99.90;;;;;;4994944;28;20675;-77
2021/05/28 05:34:13;;;;;;;5.80;5.30;;;13.40;99.90;;;;;;4994094;28;20224;-77
2021/05/28 05:36:40;;;;;;;4.40;4.00;;;13.50;99.90;;;;;;4988122;28;20203;-77
2021/05/28 05:39:07;;;;;;;6.17;5.60;;;13.80;99.90;;;;;;4994763;28;20228;-77
2021/05/28 05:41:34;;;;;;;4.20;3.80;;;14.10;99.90;;;;;;5008816;28;20575;-77
2021/05/28 05:44:01;;;;;;;3.73;3.43;;;14.50;99.90;;;;;;4992184;28;20221;-77
2021/05/28 05:46:27;;;;;;;5.20;4.70;;;15.20;99.90;;;;;;5003341;28;20199;-79
2021/05/28 05:48:53;;;;;;;4.77;4.37;;;15.70;99.90;;;;;;5005082;28;20194;-78
2021/05/28 05:51:19;;;;;;;5.17;4.67;;;16.20;99.90;;;;;;5002112;28;20237;-78
2021/05/28 05:53:46;;;;;;;6.23;5.73;;;16.60;99.90;;;;;;5003319;28;20225;-78
2021/05/28 05:56:12;;;;;;;6.80;5.17;;;16.80;99.90;;;;;;4998894;28;20199;-77
2021/05/28 05:58:41;;;;;;;6.97;6.03;;;17.00;99.90;;;;;;4993689;28;20229;-78
2021/05/28 06:01:07;;;;;;;6.20;5.70;;;17.30;99.90;;;;;;4993340;28;20199;-77
2021/05/28 06:03:33;;;;;;;6.63;6.10;;;17.50;99.90;;;;;;4997428;28;20723;-79
2021/05/28 06:06:00;;;;;;;6.77;6.17;;;17.50;99.90;;;;;;4992673;28;20215;-77
2021/05/28 06:08:26;;;;;;;9.10;7.40;;;17.80;99.90;;;;;;4987877;28;20196;-77
2021/05/28 06:10:53;;;;;;;7.40;6.70;;;17.90;99.90;;;;;;4984846;28;20216;-77
2021/05/28 06:13:19;;;;;;;6.93;6.30;;;18.10;99.90;;;;;;4988548;28;20292;-76
2021/05/28 06:15:47;;;;;;;7.67;6.97;;;18.10;99.90;;;;;;4993180;28;20201;-77
2021/05/28 06:18:14;;;;;;;8.03;7.27;;;18.20;99.90;;;;;;4987996;28;20216;-76
2021/05/28 06:20:40;;;;;;;7.63;6.93;;;18.60;99.90;;;;;;4987355;28;20205;-77
2021/05/28 06:23:06;;;;;;;8.30;7.60;;;18.90;99.90;;;;;;4991299;28;20227;-77
2021/05/28 06:25:33;;;;;;;6.33;5.73;;;18.60;99.90;;;;;;4988200;28;20198;-77
2021/05/28 06:27:59;;;;;;;11.37;10.50;;;17.90;99.90;;;;;;4987015;28;20208;-77
2021/05/28 06:30:25;;;;;;;10.60;9.80;;;17.20;99.90;;;;;;4990385;28;20209;-77
2021/05/28 06:32:53;;;;;;;9.10;8.40;;;17.10;99.90;;;;;;4987890;28;20589;-78
2021/05/28 06:35:19;;;;;;;10.60;9.77;;;17.20;99.90;;;;;;4990327;28;20201;-78
2021/05/28 06:37:45;;;;;;;10.40;9.50;;;16.90;99.90;;;;;;5000107;28;20213;-78
2021/05/28 06:40:13;;;;;;;9.50;8.80;;;16.60;99.90;;;;;;4986433;28;20205;-77
2021/05/28 06:42:39;;;;;;;12.27;11.20;;;16.50;99.90;;;;;;4992991;28;20633;-77
2021/05/28 06:45:08;;;;;;;9.90;9.10;;;16.10;99.90;;;;;;4984087;28;20204;-77
2021/05/28 06:47:34;;;;;;;9.60;8.80;;;15.90;99.90;;;;;;4993831;28;20261;-76
2021/05/28 06:50:02;;;;;;;9.40;8.60;;;15.90;99.90;;;;;;4985674;28;20585;-77
2021/05/28 06:52:28;;;;;;;9.83;9.03;;;16.50;99.90;;;;;;5001354;28;20195;-76
2021/05/28 06:54:54;;;;;;;10.03;9.23;;;17.10;99.90;;;;;;4994173;28;20743;-77
2021/05/28 06:57:22;;;;;;;9.87;9.17;;;18.00;99.90;;;;;;4990773;28;20228;-77
2021/05/28 06:59:48;;;;;;;8.70;7.90;;;18.70;99.90;;;;;;4988980;28;20205;-77
2021/05/28 07:02:14;;;;;;;8.77;7.87;;;19.00;99.90;;;;;;4984257;28;20672;-78
2021/05/28 07:04:41;;;;;;;8.80;8.00;;;19.00;99.90;;;;;;4989718;28;20254;-77
2021/05/28 07:07:12;;;;;;;9.40;8.63;;;18.60;99.90;;;;;;4991438;28;20202;-76
2021/05/28 07:09:38;;;;;;;9.03;8.33;;;18.20;99.90;;;;;;4992182;28;20201;-78
2021/05/28 07:12:05;;;;;;;9.93;9.13;;;18.40;99.90;;;;;;4987669;28;20197;-77
2021/05/28 07:14:31;;;;;;;9.67;8.87;;;19.00;99.90;;;;;;4992303;28;20284;-76
2021/05/28 07:16:58;;;;;;;10.80;9.83;;;19.20;99.90;;;;;;4989479;28;20709;-77
2021/05/28 07:19:24;;;;;;;10.23;9.23;;;19.20;99.90;;;;;;4985683;28;20231;-76
2021/05/28 07:21:50;;;;;;;9.80;9.10;;;19.80;99.90;;;;;;4997248;28;20203;-76
2021/05/28 07:24:18;;;;;;;10.40;9.40;;;20.30;99.90;;;;;;4989945;28;20702;-77
2021/05/28 07:26:53;;;;;;;10.67;9.63;;;20.80;99.90;;;;;;5000956;28;20695;-77
2021/05/28 07:29:20;;;;;;;9.20;8.60;;;20.90;99.90;;;;;;4993316;28;20188;-77
2021/05/28 07:31:46;;;;;;;9.33;8.73;;;21.40;99.90;;;;;;4992269;28;20201;-77
2021/05/28 07:34:12;;;;;;;9.80;9.00;;;21.10;99.90;;;;;;4990847;28;20273;-77
2021/05/28 07:36:39;;;;;;;9.40;8.70;;;20.50;99.90;;;;;;4991981;28;20674;-76
2021/05/28 07:39:06;;;;;;;9.37;8.77;;;20.10;99.90;;;;;;4986091;28;20236;-77
2021/05/28 07:41:35;;;;;;;9.93;9.07;;;19.80;99.90;;;;;;4982747;28;20224;-76
2021/05/28 07:44:01;;;;;;;8.77;8.17;;;19.00;99.90;;;;;;4982281;28;20217;-77
2021/05/28 07:46:28;;;;;;;9.07;8.47;;;18.70;99.90;;;;;;4990299;28;20200;-78
2021/05/28 07:48:54;;;;;;;9.20;8.40;;;18.50;99.90;;;;;;4984694;28;20210;-75
2021/05/28 07:51:20;;;;;;;9.40;8.70;;;18.30;99.90;;;;;;4991721;28;20738;-77
2021/05/28 07:53:47;;;;;;;9.70;8.90;;;18.10;99.90;;;;;;4985262;28;20218;-76
2021/05/28 07:56:13;;;;;;;9.40;8.70;;;18.10;99.90;;;;;;4989904;28;20201;-76
2021/05/28 07:58:40;;;;;;;9.90;9.10;;;18.00;99.90;;;;;;4985726;28;20217;-77
2021/05/28 08:01:07;;;;;;;9.00;8.30;;;18.10;99.90;;;;;;4988546;28;20632;-77
2021/05/28 08:03:33;;;;;;;5.47;4.97;;;18.00;99.90;;;;;;4985241;28;20736;-77
2021/05/28 08:05:59;;;;;;;9.73;9.03;;;18.20;99.90;;;;;;4992114;28;20208;-76
2021/05/28 08:08:27;;;;;;;9.47;8.73;;;18.20;99.90;;;;;;4987095;28;20257;-76
2021/05/28 08:10:54;;;;;;;7.50;6.90;;;18.30;99.90;;;;;;4990543;28;20212;-77
2021/05/28 08:13:20;;;;;;;10.73;9.83;;;18.30;99.90;;;;;;4986220;28;20222;-76
2021/05/28 08:15:48;;;;;;;8.77;8.07;;;18.30;99.90;;;;;;4985192;28;20570;-76
2021/05/28 08:18:15;;;;;;;8.40;7.70;;;18.90;99.90;;;;;;4986910;28;20619;-76
2021/05/28 08:20:42;;;;;;;8.37;7.73;;;18.90;99.90;;;;;;4986302;28;20202;-77
2021/05/28 08:23:08;;;;;;;10.30;9.37;;;19.60;99.90;;;;;;4987075;28;20770;-76
2021/05/28 08:25:35;;;;;;;9.30;8.50;;;20.10;99.90;;;;;;4985667;28;20752;-76
2021/05/28 08:28:02;;;;;;;7.80;7.20;;;20.10;99.90;;;;;;4982544;28;20196;-76
2021/05/28 08:30:28;;;;;;;8.43;7.80;;;20.20;99.90;;;;;;4992320;28;20200;-77
2021/05/28 08:32:55;;;;;;;9.77;8.87;;;20.20;99.90;;;;;;4984215;28;20876;-77
2021/05/28 08:35:21;;;;;;;9.07;8.13;;;19.90;99.90;;;;;;4990558;28;20197;-78
2021/05/28 08:37:48;;;;;;;9.13;8.33;;;19.30;99.90;;;;;;4975451;28;20223;-77
2021/05/28 08:40:16;;;;;;;8.67;7.87;;;19.00;99.90;;;;;;4992094;28;20693;-77
2021/05/28 08:42:44;;;;;;;6.23;5.63;;;18.90;99.90;;;;;;4987670;28;20204;-77
2021/05/28 08:45:12;;;;;;;7.07;6.37;;;19.10;99.90;;;;;;4995925;28;20196;-78
2021/05/28 08:47:40;;;;;;;8.93;8.23;;;19.20;99.90;;;;;;4991719;28;20208;-77
2021/05/28 08:50:08;;;;;;;8.57;7.83;;;19.10;99.90;;;;;;4997276;28;20209;-77
2021/05/28 08:52:35;;;;;;;8.57;7.87;;;18.90;99.90;;;;;;4989996;28;20223;-77
2021/05/28 08:55:01;;;;;;;8.50;7.70;;;18.70;99.90;;;;;;4997413;28;20211;-76
2021/05/28 08:57:27;;;;;;;8.63;8.03;;;18.70;99.90;;;;;;4991383;28;20258;-77
2021/05/28 08:59:53;;;;;;;8.03;7.43;;;18.70;99.90;;;;;;4999916;28;20202;-76
2021/05/28 09:02:31;;;;;;;7.57;7.03;;;19.00;99.90;;;;;;4992845;28;20208;-76
2021/05/28 09:05:10;;;;;;;7.60;7.00;;;19.10;99.90;;;;;;4990957;28;20728;-78
2021/05/28 09:07:37;;;;;;;8.20;7.50;;;19.30;99.90;;;;;;5005577;28;20201;-77
2021/05/28 09:10:26;;;;;;;8.50;7.80;;;19.30;99.90;;;;;;4998341;28;20713;-77
2021/05/28 09:15:41;;;;;;;6.57;5.97;;;18.80;99.90;;;;;;4992422;28;20220;-78
2021/05/28 09:18:07;;;;;;;6.50;5.90;;;19.60;99.90;;;;;;4996314;28;20210;-78
2021/05/28 09:20:35;;;;;;;9.00;8.40;;;20.00;99.90;;;;;;4996195;28;20710;-76
2021/05/28 09:23:10;;;;;;;5.60;4.83;;;20.00;99.90;;;;;;4983488;28;20207;-78
2021/05/28 09:26:02;;;;;;;8.67;7.97;;;19.70;99.90;;;;;;4972547;28;20211;-78
2021/05/28 09:28:30;;;;;;;4.90;4.40;;;19.40;99.90;;;;;;4976311;28;20560;-76
2021/05/28 09:31:03;;;;;;;8.07;5.70;;;19.20;99.90;;;;;;4976186;28;20266;-75
2021/05/28 09:33:33;;;;;;;8.43;7.73;;;18.90;99.90;;;;;;4976194;28;20301;-77
2021/05/28 09:36:11;;;;;;;5.80;5.30;;;19.00;99.90;;;;;;4976109;28;20200;-77
2021/05/28 09:38:38;;;;;;;7.10;6.37;;;18.90;99.90;;;;;;4974188;28;20229;-76
2021/05/28 09:41:05;;;;;;;8.33;7.53;;;18.90;99.90;;;;;;4976523;28;20229;-76
2021/05/28 09:43:32;;;;;;;8.90;7.97;;;18.60;99.90;;;;;;4971151;28;20224;-77
2021/05/28 09:45:59;;;;;;;7.83;7.23;;;18.30;99.90;;;;;;4958391;28;20682;-77
2021/05/28 09:48:28;;;;;;;9.70;8.70;;;18.10;99.90;;;;;;4975603;28;20206;-77
2021/05/28 09:50:56;;;;;;;9.67;8.97;;;17.70;99.90;;;;;;4975754;28;20202;-77
2021/05/28 09:53:33;;;;;;;7.37;6.47;;;17.80;99.90;;;;;;4958115;28;20206;-77
2021/05/28 09:56:01;;;;;;;6.87;5.00;;;17.70;99.90;;;;;;4958370;28;20573;-77
2021/05/28 09:58:57;;;;;;;4.70;3.83;;;17.60;99.90;;;;;;4974085;28;20713;-77
2021/05/28 10:01:24;;;;;;;7.80;5.67;;;17.50;99.90;;;;;;4975300;28;20242;-77
2021/05/28 10:04:01;;;;;;;5.57;5.07;;;17.70;99.90;;;;;;4958096;28;20229;-78
2021/05/28 10:06:28;;;;;;;6.10;4.97;;;18.30;99.90;;;;;;4973960;28;20213;-77
2021/05/28 10:08:58;;;;;;;6.40;4.80;;;18.50;99.90;;;;;;4975738;28;20201;-77
2021/05/28 10:11:26;;;;;;;6.07;5.47;;;18.80;99.90;;;;;;4975144;28;20197;-79
2021/05/28 10:13:54;;;;;;;6.03;5.00;;;18.80;99.90;;;;;;4975234;28;20289;-78
2021/05/28 10:16:21;;;;;;;5.10;4.40;;;19.40;99.90;;;;;;4973925;28;20202;-77
2021/05/28 10:18:49;;;;;;;6.33;5.60;;;19.80;99.90;;;;;;4975115;28;20222;-77
2021/05/28 10:21:16;;;;;;;5.80;5.20;;;19.70;99.90;;;;;;4989616;28;20207;-77
2021/05/28 10:23:44;;;;;;;5.47;4.73;;;19.50;99.90;;;;;;4975071;28;20883;-77
2021/05/28 10:26:12;;;;;;;5.60;4.60;;;19.60;99.90;;;;;;4992854;28;20204;-77
2021/05/28 10:28:43;;;;;;;4.57;4.20;;;19.00;99.90;;;;;;4975259;28;20570;-76
2021/05/28 10:31:10;;;;;;;7.77;7.27;;;18.80;99.90;;;;;;4975467;28;20807;-77
2021/05/28 10:33:43;;;;;;;8.10;7.30;;;18.70;99.90;;;;;;4974953;28;20296;-77
2021/05/28 10:36:10;;;;;;;8.40;7.80;;;18.80;99.90;;;;;;4989666;28;20214;-77
2021/05/28 10:38:49;;;;;;;9.27;8.57;;;19.10;99.90;;;;;;4988991;28;20703;-78
2021/05/28 10:41:41;;;;;;;8.43;7.80;;;18.90;99.90;;;;;;4974875;28;20199;-77
2021/05/28 10:44:13;;;;;;;8.03;7.33;;;19.20;99.90;;;;;;4971869;28;20222;-77
2021/05/28 10:46:58;;;;;;;6.70;5.37;;;19.80;99.90;;;;;;4974789;28;20194;-77
2021/05/28 10:49:42;;;;;;;8.23;7.60;;;20.60;99.90;;;;;;4988336;28;20211;-77
2021/05/28 10:52:12;;;;;;;8.57;7.77;;;20.80;99.90;;;;;;4989736;28;20267;-76
2021/05/28 10:54:44;;;;;;;8.07;7.27;;;20.30;99.90;;;;;;4989617;28;20228;-76
2021/05/28 10:57:34;;;;;;;7.60;7.00;;;20.10;99.90;;;;;;4990430;28;20200;-76
2021/05/28 11:00:06;;;;;;;8.50;7.80;;;20.10;99.90;;;;;;4970981;28;20208;-79
2021/05/28 11:02:55;;;;;;;8.53;7.60;;;19.80;99.90;;;;;;4973447;28;20212;-77
2021/05/28 11:05:56;;;;;;;9.33;8.37;;;19.80;99.90;;;;;;4989543;28;20267;-77
2021/05/28 11:08:36;;;;;;;7.57;6.97;;;19.40;99.90;;;;;;4973371;28;20193;-77
2021/05/28 11:11:03;;;;;;;8.83;8.13;;;19.40;99.90;;;;;;4971521;28;20211;-77
2021/05/28 11:13:30;;;;;;;7.33;5.73;;;19.60;99.90;;;;;;4974316;28;20217;-77
2021/05/28 11:15:58;;;;;;;8.73;6.80;;;19.70;99.90;;;;;;4974253;28;20576;-78
2021/05/28 11:18:29;;;;;;;4.97;3.97;;;20.30;99.90;;;;;;4975311;28;20729;-78
2021/05/28 11:21:14;;;;;;;5.83;5.07;;;20.50;99.90;;;;;;4991253;28;20208;-77
2021/05/28 11:23:43;;;;;;;7.20;6.60;;;20.20;99.90;;;;;;4990553;28;20617;-77
2021/05/28 11:26:15;;;;;;;7.80;7.10;;;20.10;99.90;;;;;;4975378;28;20200;-79
2021/05/28 11:28:55;;;;;;;7.30;6.70;;;19.80;99.90;;;;;;4989918;28;20232;-79
2021/05/28 11:31:23;;;;;;;7.73;7.03;;;19.80;99.90;;;;;;4989061;28;20204;-78
2021/05/28 11:33:57;;;;;;;7.53;6.90;;;19.70;99.90;;;;;;4989501;28;20787;-76
2021/05/28 11:36:41;;;;;;;8.47;7.77;;;19.70;99.90;;;;;;4986959;28;20323;-76
2021/05/28 11:39:10;;;;;;;7.77;7.17;;;19.60;99.90;;;;;;4972595;28;20262;-76
2021/05/28 11:41:48;;;;;;;8.10;7.37;;;19.60;99.90;;;;;;4973518;28;20203;-75
2021/05/28 11:44:17;;;;;;;8.47;7.77;;;19.80;99.90;;;;;;4985817;28;20259;-76
2021/05/28 11:46:46;;;;;;;7.90;7.20;;;19.60;99.90;;;;;;4973433;28;20207;-76
2021/05/28 11:49:14;;;;;;;8.53;7.83;;;19.50;99.90;;;;;;4986622;28;20212;-76
2021/05/28 11:51:41;;;;;;;7.80;7.20;;;19.30;99.90;;;;;;4985168;28;20236;-75
2021/05/28 11:54:21;;;;;;;8.20;7.50;;;19.20;99.90;;;;;;4971540;28;20285;-76
2021/05/28 11:56:56;;;;;;;8.37;7.60;;;19.30;99.90;;;;;;4985087;28;20215;-76
2021/05/28 11:59:44;;;;;;;8.67;7.87;;;19.10;99.90;;;;;;4986652;28;20221;-76
2021/05/28 12:02:10;;;;;;;8.07;7.37;;;18.90;99.90;;;;;;4973311;28;20597;-77
2021/05/28 12:04:36;;;;;;;8.20;7.50;;;18.80;99.90;;;;;;4988107;28;20655;-77
2021/05/28 12:07:07;;;;;;;7.97;7.37;;;18.80;99.90;;;;;;4973453;28;20318;-77
2021/05/28 12:09:34;;;;;;;8.83;8.10;;;18.90;99.90;;;;;;4972368;28;20207;-76
2021/05/28 12:12:01;;;;;;;7.97;7.27;;;18.80;99.90;;;;;;4973540;28;20198;-77
2021/05/28 12:14:29;;;;;;;7.20;6.60;;;18.80;99.90;;;;;;4971921;28;20234;-76
2021/05/28 12:16:55;;;;;;;8.37;7.67;;;19.10;99.90;;;;;;4987451;28;20678;-77
2021/05/28 12:19:22;;;;;;;8.83;8.03;;;19.00;99.90;;;;;;4974431;28;20221;-77
2021/05/28 12:21:48;;;;;;;11.00;10.00;;;19.00;99.90;;;;;;4973388;28;20256;-78
2021/05/28 12:24:17;;;;;;;7.90;7.20;;;19.10;99.90;;;;;;4971033;28;20222;-77
2021/05/28 12:26:43;;;;;;;7.90;7.20;;;19.10;99.90;;;;;;4968688;28;20664;-77
2021/05/28 12:29:09;;;;;;;7.53;7.00;;;19.30;99.90;;;;;;4971711;28;20201;-77
2021/05/28 12:31:40;;;;;;;9.00;8.30;;;19.70;99.90;;;;;;4964593;28;20584;-75
2021/05/28 12:34:08;;;;;;;8.13;7.43;;;19.80;99.90;;;;;;4987939;28;20742;-75
2021/05/28 12:36:36;;;;;;;9.87;9.07;;;19.60;99.90;;;;;;4984957;28;20293;-76
2021/05/28 12:39:07;;;;;;;7.70;7.00;;;19.30;99.90;;;;;;4984344;28;20223;-76
2021/05/28 12:41:34;;;;;;;7.50;6.90;;;19.00;99.90;;;;;;4972599;28;20696;-76
2021/05/28 12:44:03;;;;;;;7.40;6.80;;;19.20;99.90;;;;;;4971075;28;20221;-77
2021/05/28 12:46:33;;;;;;;8.30;7.60;;;19.10;99.90;;;;;;4976576;28;20223;-76
2021/05/28 12:49:03;;;;;;;6.93;6.43;;;18.90;99.90;;;;;;4976964;28;20199;-76
2021/05/28 12:51:32;;;;;;;8.03;7.43;;;19.00;99.90;;;;;;4969612;28;20198;-76
2021/05/28 12:53:59;;;;;;;7.00;6.50;;;18.70;99.90;;;;;;4972685;28;20214;-77
2021/05/28 12:56:28;;;;;;;6.70;6.17;;;18.50;99.90;;;;;;4972339;28;20550;-75